createdAt,value
2024-01-21T00:00:27.593Z,7.23
2024-01-21T00:02:54.930Z,7.47
2024-01-21T00:05:21.712Z,7.40
2024-01-21T00:07:48.923Z,7.83
2024-01-21T00:10:15.736Z,8.03
2024-01-21T00:12:42.571Z,8.27
2024-01-21T00:15:09.979Z,8.27
2024-01-21T00:17:36.764Z,8.87
2024-01-21T00:20:04.622Z,8.67
2024-01-21T00:22:31.828Z,9.40
2024-01-21T00:24:58.581Z,9.83
2024-01-21T00:27:25.356Z,9.30
2024-01-21T00:29:52.562Z,9.60
2024-01-21T00:32:19.738Z,9.97
2024-01-21T00:34:46.866Z,10.70
2024-01-21T00:37:13.993Z,10.33
2024-01-21T00:39:40.824Z,10.47
2024-01-21T00:42:09.060Z,9.87
2024-01-21T00:44:36.722Z,10.23
2024-01-21T00:47:03.925Z,10.73
2024-01-21T00:49:34.270Z,10.40
2024-01-21T00:52:01.155Z,10.83
2024-01-21T00:54:27.972Z,11.00
2024-01-21T00:56:55.172Z,10.50
2024-01-21T00:59:21.886Z,10.87
2024-01-21T01:01:49.150Z,11.97
2024-01-21T01:04:16.522Z,10.37
2024-01-21T01:06:43.788Z,10.47
2024-01-21T01:09:10.992Z,11.13
2024-01-21T01:11:38.795Z,11.07
2024-01-21T01:14:05.543Z,10.60
2024-01-21T01:16:36.958Z,10.83
2024-01-21T01:19:03.813Z,11.17
2024-01-21T01:21:30.706Z,10.70
2024-01-21T01:23:58.166Z,12.30
2024-01-21T01:26:24.936Z,11.23
2024-01-21T01:28:52.253Z,12.13
2024-01-21T01:31:20.099Z,11.63
2024-01-21T01:33:47.278Z,11.83
2024-01-21T01:36:14.146Z,11.27
2024-01-21T01:38:42.101Z,10.83
2024-01-21T01:41:10.361Z,11.87
2024-01-21T01:43:37.599Z,11.73
2024-01-21T01:46:05.251Z,11.60
2024-01-21T01:48:32.868Z,10.90
2024-01-21T01:51:01.851Z,11.63
2024-01-21T01:53:30.580Z,10.57
2024-01-21T01:55:58.561Z,11.87
2024-01-21T01:58:29.177Z,12.27
2024-01-21T02:00:57.796Z,11.20
2024-01-21T02:03:25.409Z,11.60
2024-01-21T02:05:52.685Z,12.40
2024-01-21T02:08:19.864Z,11.13
2024-01-21T02:10:47.330Z,11.43
2024-01-21T02:13:14.241Z,11.37
2024-01-21T02:15:41.394Z,11.13
2024-01-21T02:18:08.269Z,11.10
2024-01-21T02:20:36.687Z,11.67
2024-01-21T02:23:07.881Z,11.40
2024-01-21T02:25:34.983Z,11.47
2024-01-21T02:28:01.676Z,11.23
2024-01-21T02:30:28.513Z,10.97
2024-01-21T02:32:55.713Z,10.70
2024-01-21T02:35:22.480Z,11.00
2024-01-21T02:37:49.638Z,10.60
2024-01-21T02:40:16.390Z,10.97
2024-01-21T02:42:43.761Z,11.13
2024-01-21T02:45:10.651Z,10.43
2024-01-21T02:47:37.508Z,11.57
2024-01-21T02:50:04.495Z,11.20
2024-01-21T02:52:31.182Z,10.83
2024-01-21T02:54:58.381Z,11.57
2024-01-21T02:57:26.634Z,11.07
2024-01-21T02:59:53.349Z,11.53
2024-01-21T03:02:20.541Z,11.93
2024-01-21T03:04:47.359Z,11.00
2024-01-21T03:07:14.804Z,11.80
2024-01-21T03:09:41.932Z,11.37
2024-01-21T03:12:09.138Z,10.40
2024-01-21T03:14:36.407Z,11.00
2024-01-21T03:17:04.619Z,10.67
2024-01-21T03:19:31.448Z,11.17
2024-01-21T03:21:58.364Z,10.97
2024-01-21T03:24:25.650Z,10.40
2024-01-21T03:26:52.385Z,10.00
2024-01-21T03:29:19.638Z,10.57
2024-01-21T03:31:46.366Z,9.90
2024-01-21T03:34:13.641Z,9.37
2024-01-21T03:36:41.019Z,9.83
2024-01-21T03:39:08.406Z,9.83
2024-01-21T03:41:35.250Z,9.93
2024-01-21T03:44:01.949Z,9.43
2024-01-21T03:46:28.644Z,9.33
2024-01-21T03:48:55.463Z,9.10
2024-01-21T03:51:22.299Z,8.47
2024-01-21T03:53:49.809Z,8.80
2024-01-21T03:56:19.889Z,9.50
2024-01-21T03:58:46.919Z,8.83
2024-01-21T04:01:13.802Z,9.60
2024-01-21T04:03:41.065Z,9.87
2024-01-21T04:06:08.391Z,8.80
2024-01-21T04:08:35.175Z,8.77
2024-01-21T04:11:01.983Z,8.93
2024-01-21T04:13:28.720Z,8.53
2024-01-21T04:15:55.541Z,9.20
2024-01-21T04:18:22.791Z,9.00
2024-01-21T04:20:49.542Z,8.07
2024-01-21T04:23:16.708Z,8.23
2024-01-21T04:25:43.502Z,8.47
2024-01-21T04:28:10.367Z,8.60
2024-01-21T04:30:37.539Z,8.10
2024-01-21T04:33:04.495Z,9.03
2024-01-21T04:35:32.107Z,8.87
2024-01-21T04:37:58.864Z,8.70
2024-01-21T04:40:25.802Z,8.73
2024-01-21T04:42:52.623Z,8.73
2024-01-21T04:45:20.581Z,8.80
2024-01-21T04:47:47.828Z,9.23
2024-01-21T04:50:15.104Z,8.17
2024-01-21T04:52:42.255Z,8.33
2024-01-21T04:55:09.558Z,9.20
2024-01-21T04:57:36.263Z,8.33
2024-01-21T05:00:03.901Z,8.37
2024-01-21T05:02:30.594Z,8.73
2024-01-21T05:04:58.265Z,8.40
2024-01-21T05:07:27.194Z,7.80
2024-01-21T05:09:54.751Z,7.80
2024-01-21T05:12:21.601Z,8.10
2024-01-21T05:14:48.735Z,7.60
2024-01-21T05:17:15.464Z,8.60
2024-01-21T05:19:42.689Z,8.37
2024-01-21T05:22:09.819Z,8.37
2024-01-21T05:24:37.415Z,8.20
2024-01-21T05:27:04.507Z,7.90
2024-01-21T05:29:33.980Z,8.00
2024-01-21T05:32:01.634Z,9.03
2024-01-21T05:34:28.364Z,8.07
2024-01-21T05:36:55.548Z,8.67
2024-01-21T05:39:22.321Z,8.33
2024-01-21T05:42:05.867Z,8.07
2024-01-21T05:44:32.821Z,8.17
2024-01-21T05:46:59.812Z,7.97
2024-01-21T05:49:27.445Z,7.63
2024-01-21T05:51:54.710Z,8.27
2024-01-21T05:54:22.168Z,8.47
2024-01-21T05:56:49.018Z,8.53
2024-01-21T05:59:18.130Z,9.00
2024-01-21T06:01:45.906Z,7.67
2024-01-21T06:04:13.981Z,8.87
2024-01-21T06:06:41.963Z,8.57
2024-01-21T06:09:09.882Z,7.40
2024-01-21T06:11:36.664Z,8.43
2024-01-21T06:14:03.365Z,7.87
2024-01-21T06:16:30.492Z,8.57
2024-01-21T06:18:57.324Z,7.87
2024-01-21T06:21:24.566Z,8.57
2024-01-21T06:23:51.264Z,8.27
2024-01-21T06:26:20.792Z,7.47
2024-01-21T06:28:51.181Z,8.30
2024-01-21T06:31:18.421Z,7.53
2024-01-21T06:33:45.837Z,8.00
2024-01-21T06:36:13.193Z,8.90
2024-01-21T06:38:40.615Z,8.40
2024-01-21T06:41:07.578Z,8.30
2024-01-21T06:43:34.308Z,7.70
2024-01-21T06:46:01.484Z,7.87
2024-01-21T06:48:28.397Z,8.33
2024-01-21T06:50:55.856Z,7.73
2024-01-21T06:53:23.084Z,7.50
2024-01-21T06:55:49.764Z,8.40
2024-01-21T06:58:16.777Z,8.57
2024-01-21T07:00:44.086Z,7.33
2024-01-21T07:03:10.962Z,8.80
2024-01-21T07:05:38.173Z,7.80
2024-01-21T07:08:05.600Z,7.63
2024-01-21T07:10:32.850Z,8.07
2024-01-21T07:13:00.079Z,7.70
2024-01-21T07:15:27.295Z,8.57
2024-01-21T07:17:54.522Z,7.83
2024-01-21T07:20:21.277Z,7.77
2024-01-21T07:22:48.455Z,7.53
2024-01-21T07:25:15.890Z,7.90
2024-01-21T07:27:46.230Z,7.83
2024-01-21T07:30:13.727Z,7.87
2024-01-21T07:32:41.747Z,7.87
2024-01-21T07:35:10.338Z,7.50
2024-01-21T07:37:37.897Z,7.43
2024-01-21T07:40:05.497Z,7.40
2024-01-21T07:42:32.417Z,7.90
2024-01-21T07:44:59.731Z,7.83
2024-01-21T07:47:27.144Z,7.07
2024-01-21T07:49:54.314Z,7.53
2024-01-21T07:52:21.561Z,7.23
2024-01-21T07:54:48.773Z,7.53
2024-01-21T07:57:15.989Z,7.60
2024-01-21T07:59:43.018Z,7.47
2024-01-21T08:02:10.168Z,7.60
2024-01-21T08:04:37.361Z,6.80
2024-01-21T08:07:04.799Z,7.83
2024-01-21T08:09:31.989Z,7.77
2024-01-21T08:11:59.159Z,7.43
2024-01-21T08:14:27.060Z,7.47
2024-01-21T08:16:54.352Z,7.43
2024-01-21T08:19:21.668Z,7.57
2024-01-21T08:21:49.197Z,7.53
2024-01-21T08:24:16.517Z,7.60
2024-01-21T08:26:43.502Z,7.03
2024-01-21T08:29:10.674Z,7.57
2024-01-21T08:31:47.237Z,7.23
2024-01-21T08:34:14.730Z,7.23
2024-01-21T08:36:41.794Z,7.23
2024-01-21T08:39:10.443Z,7.77
2024-01-21T08:41:37.680Z,8.33
2024-01-21T08:44:04.875Z,7.30
2024-01-21T08:46:31.799Z,7.63
2024-01-21T08:48:59.185Z,8.03
2024-01-21T08:51:26.112Z,7.93
2024-01-21T08:54:00.134Z,8.50
2024-01-21T08:56:27.497Z,7.97
2024-01-21T08:58:54.967Z,7.67
2024-01-21T09:01:22.890Z,7.90
2024-01-21T09:03:50.565Z,8.00
2024-01-21T09:06:18.008Z,8.63
2024-01-21T09:08:44.962Z,7.37
2024-01-21T09:11:13.276Z,7.90
2024-01-21T09:13:40.076Z,7.60
2024-01-21T09:16:07.082Z,7.37
2024-01-21T09:18:34.873Z,8.30
2024-01-21T09:21:02.164Z,7.67
2024-01-21T09:23:29.371Z,8.43
2024-01-21T09:25:56.477Z,8.10
2024-01-21T09:28:25.000Z,8.90
2024-01-21T09:30:52.285Z,9.77
2024-01-21T09:33:20.728Z,7.53
2024-01-21T09:35:48.036Z,10.07
2024-01-21T09:38:17.554Z,9.37
2024-01-21T09:40:44.780Z,9.60
2024-01-21T09:43:13.032Z,12.10
2024-01-21T09:45:43.429Z,8.73
2024-01-21T09:48:11.088Z,9.03
2024-01-21T09:50:39.796Z,10.27
2024-01-21T09:53:07.030Z,8.47
2024-01-21T09:55:33.807Z,8.07
2024-01-21T09:58:06.800Z,8.47
2024-01-21T10:00:34.051Z,8.07
2024-01-21T10:03:01.222Z,9.20
2024-01-21T10:05:28.516Z,9.20
2024-01-21T10:07:55.836Z,13.37
2024-01-21T10:10:22.611Z,11.90
2024-01-21T10:12:49.833Z,11.10
2024-01-21T10:15:16.812Z,9.20
2024-01-21T10:17:44.005Z,8.70
2024-01-21T10:20:12.886Z,8.63
2024-01-21T10:22:41.813Z,8.93
2024-01-21T10:25:13.061Z,7.70
2024-01-21T10:27:41.255Z,8.10
2024-01-21T10:30:09.573Z,9.40
2024-01-21T10:32:36.519Z,8.47
2024-01-21T10:35:04.461Z,7.80
2024-01-21T10:37:35.846Z,8.33
2024-01-21T10:40:03.394Z,8.50
2024-01-21T10:42:30.608Z,7.93
2024-01-21T10:44:59.134Z,8.43
2024-01-21T10:47:26.977Z,8.57
2024-01-21T10:49:54.705Z,8.30
2024-01-21T10:52:22.516Z,8.47
2024-01-21T10:54:50.369Z,8.23
2024-01-21T10:57:19.050Z,8.90
2024-01-21T10:59:50.065Z,8.43
2024-01-21T11:02:20.437Z,8.53
2024-01-21T11:04:47.321Z,8.77
2024-01-21T11:07:18.035Z,8.90
2024-01-21T11:09:46.657Z,9.00
2024-01-21T11:12:15.570Z,8.93
2024-01-21T11:14:44.555Z,8.70
2024-01-21T11:17:14.650Z,8.70
2024-01-21T11:19:50.659Z,8.10
2024-01-21T11:22:19.361Z,8.50
2024-01-21T11:24:49.604Z,8.00
2024-01-21T11:27:21.997Z,8.30
2024-01-21T11:29:58.461Z,8.40
2024-01-21T11:32:27.733Z,8.17
2024-01-21T11:34:55.935Z,8.53
2024-01-21T11:37:23.379Z,8.27
2024-01-21T11:39:50.860Z,8.10
2024-01-21T11:42:18.301Z,7.90
2024-01-21T11:44:45.606Z,8.07
2024-01-21T11:47:13.155Z,8.13
2024-01-21T11:49:40.422Z,7.93
2024-01-21T11:52:08.120Z,7.97
2024-01-21T11:54:37.482Z,8.10
2024-01-21T11:57:04.940Z,8.30
2024-01-21T11:59:32.307Z,8.30
2024-01-21T12:02:00.643Z,8.30
2024-01-21T12:04:28.596Z,8.07
2024-01-21T12:06:56.611Z,8.37
2024-01-21T12:09:25.022Z,8.73
2024-01-21T12:11:52.792Z,9.50
2024-01-21T12:14:22.212Z,8.50
2024-01-21T12:16:54.991Z,8.60
2024-01-21T12:19:24.275Z,8.63
2024-01-21T12:21:52.928Z,9.07
2024-01-21T12:24:26.288Z,8.73
2024-01-21T12:26:56.402Z,8.60
2024-01-21T12:29:23.525Z,9.00
2024-01-21T12:31:50.402Z,8.87
2024-01-21T12:34:19.852Z,9.17
2024-01-21T12:36:47.600Z,9.17
2024-01-21T12:39:16.674Z,8.53
2024-01-21T12:41:44.005Z,8.80
2024-01-21T12:44:10.718Z,9.17
2024-01-21T12:46:39.454Z,8.77
2024-01-21T12:49:06.625Z,8.77
2024-01-21T12:51:33.634Z,8.13
2024-01-21T12:54:00.655Z,8.10
2024-01-21T12:56:28.255Z,7.23
2024-01-21T12:58:56.015Z,8.30
2024-01-21T13:01:24.062Z,8.03
2024-01-21T13:03:53.877Z,7.60
2024-01-21T13:06:21.368Z,8.90
2024-01-21T13:08:49.736Z,9.00
2024-01-21T13:11:17.547Z,10.83
2024-01-21T13:13:44.528Z,8.67
2024-01-21T13:16:12.074Z,8.47
2024-01-21T13:18:39.714Z,7.40
2024-01-21T13:21:08.802Z,7.43
2024-01-21T13:23:35.748Z,7.63
2024-01-21T13:26:03.156Z,8.17
2024-01-21T13:28:39.828Z,7.60
2024-01-21T13:31:06.869Z,7.30
2024-01-21T13:33:33.932Z,6.97
2024-01-21T13:36:01.284Z,6.93
2024-01-21T13:38:31.379Z,7.70
2024-01-21T13:41:03.319Z,6.97
2024-01-21T13:43:30.214Z,6.70
2024-01-21T13:45:57.219Z,7.50
2024-01-21T13:48:24.051Z,8.40
2024-01-21T13:50:51.013Z,7.30
2024-01-21T13:53:18.775Z,7.07
2024-01-21T13:55:46.896Z,7.50
2024-01-21T13:58:20.006Z,7.40
2024-01-21T14:00:47.584Z,7.70
2024-01-21T14:03:15.898Z,7.47
2024-01-21T14:05:43.310Z,7.30
2024-01-21T14:08:11.453Z,7.33
2024-01-21T14:10:38.603Z,8.30
2024-01-21T14:13:06.886Z,8.27
2024-01-21T14:15:33.765Z,7.40
2024-01-21T14:18:02.862Z,9.83
2024-01-21T14:20:30.051Z,17.07
2024-01-21T14:22:57.156Z,7.93
2024-01-21T14:25:28.777Z,7.40
2024-01-21T14:27:55.878Z,7.33
2024-01-21T14:30:27.596Z,7.43
2024-01-21T14:32:54.823Z,7.00
2024-01-21T14:35:22.523Z,7.43
2024-01-21T14:37:49.762Z,7.53
2024-01-21T14:40:16.959Z,7.37
2024-01-21T14:42:44.285Z,7.73
2024-01-21T14:45:11.662Z,6.87
2024-01-21T14:47:39.084Z,7.10
2024-01-21T14:50:06.580Z,7.00
2024-01-21T14:52:33.362Z,7.70
2024-01-21T14:55:00.221Z,8.00
2024-01-21T14:57:27.698Z,8.17
2024-01-21T14:59:55.027Z,7.93
2024-01-21T15:02:22.373Z,7.80
2024-01-21T15:04:49.631Z,7.40
2024-01-21T15:07:17.129Z,7.60
2024-01-21T15:09:44.389Z,7.60
2024-01-21T15:12:11.144Z,7.10
2024-01-21T15:14:48.652Z,7.40
2024-01-21T15:17:15.494Z,7.60
2024-01-21T15:19:45.036Z,9.57
2024-01-21T15:22:13.044Z,7.73
2024-01-21T15:24:40.599Z,6.67
2024-01-21T15:27:08.091Z,7.40
2024-01-21T15:29:35.201Z,7.50
2024-01-21T15:32:02.832Z,7.47
2024-01-21T15:34:30.296Z,7.47
2024-01-21T15:36:57.587Z,7.73
2024-01-21T15:39:24.836Z,6.70
2024-01-21T15:41:51.671Z,7.13
2024-01-21T15:44:18.758Z,7.63
2024-01-21T15:46:45.675Z,7.03
2024-01-21T15:49:12.760Z,7.17
2024-01-21T15:51:40.407Z,7.47
2024-01-21T15:54:14.102Z,7.30
2024-01-21T15:56:41.650Z,7.47
2024-01-21T15:59:08.523Z,7.33
2024-01-21T16:01:35.650Z,8.47
2024-01-21T16:04:02.887Z,8.00
2024-01-21T16:06:30.195Z,7.30
2024-01-21T16:08:56.993Z,7.80
2024-01-21T16:11:24.248Z,7.73
2024-01-21T16:13:52.062Z,7.70
2024-01-21T16:16:19.042Z,7.67
2024-01-21T16:18:46.352Z,8.10
2024-01-21T16:21:14.148Z,7.57
2024-01-21T16:23:41.120Z,7.03
2024-01-21T16:26:07.951Z,8.03
2024-01-21T16:28:35.257Z,9.37
2024-01-21T16:31:02.604Z,8.70
2024-01-21T16:33:29.673Z,7.87
2024-01-21T16:35:57.078Z,7.97
2024-01-21T16:38:23.927Z,7.43
2024-01-21T16:40:51.700Z,7.63
2024-01-21T16:43:18.567Z,8.40
2024-01-21T16:45:45.498Z,7.87
2024-01-21T16:48:12.595Z,8.23
2024-01-21T16:50:39.466Z,8.00
2024-01-21T16:53:15.170Z,8.10
2024-01-21T16:55:43.558Z,7.70
2024-01-21T16:58:10.500Z,7.90
2024-01-21T17:00:44.532Z,8.37
2024-01-21T17:03:13.256Z,8.20
2024-01-21T17:05:40.574Z,8.33
2024-01-21T17:08:08.024Z,8.03
2024-01-21T17:10:51.389Z,8.20
2024-01-21T17:13:18.237Z,7.40
2024-01-21T17:15:45.181Z,7.90
2024-01-21T17:18:34.174Z,7.77
2024-01-21T17:21:01.482Z,8.07
2024-01-21T17:23:28.662Z,8.47
2024-01-21T17:25:55.427Z,7.93
2024-01-21T17:28:22.683Z,8.47
2024-01-21T17:30:50.466Z,8.30
2024-01-21T17:33:19.474Z,8.23
2024-01-21T17:35:46.831Z,7.50
2024-01-21T17:38:13.663Z,6.90
2024-01-21T17:40:40.824Z,7.17
2024-01-21T17:43:07.677Z,7.30
2024-01-21T17:45:34.518Z,7.23
2024-01-21T17:48:02.596Z,6.90
2024-01-21T17:50:30.076Z,7.90
2024-01-21T17:52:57.346Z,7.90
2024-01-21T17:55:24.487Z,7.57
2024-01-21T17:57:51.792Z,7.93
2024-01-21T18:00:18.961Z,7.67
2024-01-21T18:02:46.336Z,7.53
2024-01-21T18:05:13.316Z,7.70
2024-01-21T18:07:40.449Z,7.10
2024-01-21T18:10:07.746Z,7.80
2024-01-21T18:12:36.221Z,7.43
2024-01-21T18:15:05.280Z,7.33
2024-01-21T18:17:32.397Z,6.80
2024-01-21T18:19:59.174Z,6.47
2024-01-21T18:22:26.400Z,6.63
2024-01-21T18:24:53.972Z,6.40
2024-01-21T18:27:20.886Z,6.67
2024-01-21T18:29:48.190Z,6.90
2024-01-21T18:32:16.964Z,7.23
2024-01-21T18:34:44.443Z,7.40
2024-01-21T18:37:11.423Z,7.00
2024-01-21T18:39:38.696Z,6.63
2024-01-21T18:42:07.677Z,6.80
2024-01-21T18:44:35.745Z,7.23
2024-01-21T18:47:02.992Z,6.53
2024-01-21T18:49:31.230Z,6.73
2024-01-21T18:52:04.540Z,6.40
2024-01-21T18:54:36.314Z,6.97
2024-01-21T18:57:03.753Z,6.17
2024-01-21T18:59:30.750Z,6.60
2024-01-21T19:01:57.793Z,6.23
2024-01-21T19:04:29.819Z,6.90
2024-01-21T19:07:02.238Z,6.47
2024-01-21T19:09:30.282Z,7.07
2024-01-21T19:11:57.854Z,6.33
2024-01-21T19:14:24.996Z,6.70
2024-01-21T19:16:52.289Z,6.53
2024-01-21T19:19:19.437Z,5.97
2024-01-21T19:21:46.470Z,5.90
2024-01-21T19:24:13.521Z,5.60
2024-01-21T19:26:41.878Z,6.13
2024-01-21T19:29:08.877Z,6.20
2024-01-21T19:31:36.220Z,6.50
2024-01-21T19:34:03.601Z,6.00
2024-01-21T19:36:30.552Z,5.93
2024-01-21T19:38:57.618Z,6.43
2024-01-21T19:41:25.715Z,5.97
2024-01-21T19:43:54.967Z,5.73
2024-01-21T19:46:22.509Z,6.43
2024-01-21T19:48:51.949Z,6.33
2024-01-21T19:51:20.373Z,6.43
2024-01-21T19:53:47.828Z,6.33
2024-01-21T19:56:15.241Z,5.57
2024-01-21T19:58:42.326Z,5.90
2024-01-21T20:01:09.597Z,6.90
2024-01-21T20:03:36.710Z,6.10
2024-01-21T20:06:03.810Z,6.30
2024-01-21T20:08:31.359Z,5.90
2024-01-21T20:10:58.195Z,6.27
2024-01-21T20:13:25.088Z,6.33
2024-01-21T20:15:52.181Z,5.93
2024-01-21T20:18:19.677Z,5.57
2024-01-21T20:20:48.380Z,5.03
2024-01-21T20:23:15.388Z,5.77
2024-01-21T20:25:42.599Z,5.50
2024-01-21T20:28:09.804Z,5.03
2024-01-21T20:30:36.968Z,6.00
2024-01-21T20:33:04.931Z,5.50
2024-01-21T20:35:33.401Z,6.47
2024-01-21T20:38:00.617Z,5.90
2024-01-21T20:40:27.664Z,5.50
2024-01-21T20:42:54.422Z,6.13
2024-01-21T20:45:21.373Z,5.50
2024-01-21T20:47:48.720Z,5.67
2024-01-21T20:50:15.685Z,5.53
2024-01-21T20:52:42.861Z,5.50
2024-01-21T20:55:10.135Z,5.53
2024-01-21T20:57:37.125Z,5.33
2024-01-21T21:00:04.302Z,5.33
2024-01-21T21:02:31.521Z,5.30
2024-01-21T21:04:58.307Z,5.37
2024-01-21T21:07:25.559Z,5.30
2024-01-21T21:09:52.761Z,4.50
2024-01-21T21:12:19.955Z,5.50
2024-01-21T21:14:50.356Z,5.03
2024-01-21T21:17:17.654Z,4.97
2024-01-21T21:19:44.879Z,5.10
2024-01-21T21:22:14.064Z,4.60
2024-01-21T21:24:40.854Z,4.90
2024-01-21T21:27:08.067Z,5.27
2024-01-21T21:29:34.864Z,4.83
2024-01-21T21:32:03.774Z,5.63
2024-01-21T21:34:31.044Z,6.00
2024-01-21T21:36:58.264Z,5.30
2024-01-21T21:39:25.411Z,5.17
2024-01-21T21:41:52.930Z,4.90
2024-01-21T21:44:20.145Z,4.70
2024-01-21T21:46:46.930Z,4.80
2024-01-21T21:49:13.867Z,4.60
2024-01-21T21:51:41.375Z,4.70
2024-01-21T21:54:10.008Z,4.43
2024-01-21T21:56:36.784Z,4.23
2024-01-21T21:59:04.872Z,4.47
2024-01-21T22:01:33.146Z,4.70
2024-01-21T22:04:00.629Z,4.40
2024-01-21T22:06:27.932Z,4.17
2024-01-21T22:08:55.321Z,4.30
2024-01-21T22:11:22.483Z,4.27
2024-01-21T22:13:50.013Z,4.20
2024-01-21T22:16:17.777Z,3.83
2024-01-21T22:18:45.646Z,3.67
2024-01-21T22:21:19.624Z,3.80
2024-01-21T22:23:47.299Z,3.33
2024-01-21T22:26:14.519Z,3.87
2024-01-21T22:28:41.817Z,4.80
2024-01-21T22:31:09.038Z,3.80
2024-01-21T22:33:36.505Z,3.63
2024-01-21T22:36:03.859Z,3.30
2024-01-21T22:38:30.783Z,3.00
2024-01-21T22:40:57.910Z,3.27
2024-01-21T22:43:24.791Z,3.03
2024-01-21T22:45:51.944Z,3.00
2024-01-21T22:48:19.426Z,3.17
2024-01-21T22:50:46.477Z,3.60
2024-01-21T22:53:14.173Z,3.33
2024-01-21T22:55:41.297Z,3.27
2024-01-21T22:58:08.512Z,3.40
2024-01-21T23:00:35.331Z,3.20
2024-01-21T23:03:02.808Z,3.00
2024-01-21T23:05:30.057Z,3.30
2024-01-21T23:07:57.171Z,3.30
2024-01-21T23:10:24.316Z,3.20
2024-01-21T23:12:51.052Z,3.40
2024-01-21T23:15:18.235Z,3.40
2024-01-21T23:17:45.152Z,3.30
2024-01-21T23:20:12.804Z,2.90
2024-01-21T23:22:39.584Z,3.43
2024-01-21T23:25:07.095Z,3.30
2024-01-21T23:27:34.135Z,3.43
2024-01-21T23:30:01.378Z,3.37
2024-01-21T23:32:28.615Z,3.13
2024-01-21T23:34:55.405Z,3.13
2024-01-21T23:37:23.311Z,3.40
2024-01-21T23:39:50.112Z,3.30
2024-01-21T23:42:16.916Z,3.03
2024-01-21T23:44:44.156Z,3.37
2024-01-21T23:47:11.754Z,2.97
2024-01-21T23:49:44.932Z,3.03
2024-01-21T23:52:12.009Z,2.87
2024-01-21T23:54:42.579Z,2.83
2024-01-21T23:57:09.925Z,3.23
2024-01-21T23:59:39.345Z,3.00
